Terminal Aerodrome Forecast
Issued by NWS

Home | Current Version | Previous Version | Text Only | Print | Product List | Glossary On
Versions: 1 2 3 4 5 6 7 8 9 10 11 12 13 14
000
FTUS46 KLOX 021743
TAFWJF
TAF
KWJF 021743Z 0218/0318 27014G21KT P6SM SKC
     FM022100 27022G32KT P6SM SKC
     FM030200 24018KT P6SM SKC=

USA.gov is the U.S. government's official web portal to all federal, state and local government web resources and services.